sensor_id;sensor_type;location;lat;lon;timestamp;P1;durP1;ratioP1;P2;durP2;ratioP2
46651;SDS011;32377;52.182;5.398;2022-11-27T00:02:02;23.80;;;7.68;;
46651;SDS011;32377;52.182;5.398;2022-11-27T00:04:28;23.85;;;7.55;;
46651;SDS011;32377;52.182;5.398;2022-11-27T00:06:54;25.25;;;8.20;;
46651;SDS011;32377;52.182;5.398;2022-11-27T00:09:19;29.40;;;7.80;;
46651;SDS011;32377;52.182;5.398;2022-11-27T00:11:45;25.70;;;7.75;;
46651;SDS011;32377;52.182;5.398;2022-11-27T00:14:14;30.27;;;8.35;;
46651;SDS011;32377;52.182;5.398;2022-11-27T00:16:41;31.67;;;8.07;;
46651;SDS011;32377;52.182;5.398;2022-11-27T00:19:08;29.35;;;8.02;;
46651;SDS011;32377;52.182;5.398;2022-11-27T00:21:34;24.63;;;7.95;;
46651;SDS011;32377;52.182;5.398;2022-11-27T00:24:01;29.10;;;7.13;;
46651;SDS011;32377;52.182;5.398;2022-11-27T00:26:29;27.60;;;8.75;;
46651;SDS011;32377;52.182;5.398;2022-11-27T00:28:55;22.23;;;7.13;;
46651;SDS011;32377;52.182;5.398;2022-11-27T00:31:22;27.15;;;7.10;;
46651;SDS011;32377;52.182;5.398;2022-11-27T00:33:56;23.35;;;7.13;;
46651;SDS011;32377;52.182;5.398;2022-11-27T00:36:23;21.65;;;7.28;;
46651;SDS011;32377;52.182;5.398;2022-11-27T00:38:49;25.75;;;7.45;;
46651;SDS011;32377;52.182;5.398;2022-11-27T00:41:19;27.67;;;7.20;;
46651;SDS011;32377;52.182;5.398;2022-11-27T00:43:46;26.90;;;7.45;;
46651;SDS011;32377;52.182;5.398;2022-11-27T00:46:13;31.38;;;9.50;;
46651;SDS011;32377;52.182;5.398;2022-11-27T00:48:44;26.00;;;9.15;;
46651;SDS011;32377;52.182;5.398;2022-11-27T00:51:11;23.15;;;8.10;;
46651;SDS011;32377;52.182;5.398;2022-11-27T00:53:39;22.77;;;8.35;;
46651;SDS011;32377;52.182;5.398;2022-11-27T00:56:04;19.40;;;7.25;;
46651;SDS011;32377;52.182;5.398;2022-11-27T00:58:30;24.92;;;7.72;;
46651;SDS011;32377;52.182;5.398;2022-11-27T01:00:56;21.85;;;7.05;;
46651;SDS011;32377;52.182;5.398;2022-11-27T01:03:28;21.58;;;7.82;;
46651;SDS011;32377;52.182;5.398;2022-11-27T01:05:54;23.33;;;7.65;;
46651;SDS011;32377;52.182;5.398;2022-11-27T01:08:21;21.42;;;7.00;;
46651;SDS011;32377;52.182;5.398;2022-11-27T01:10:54;33.53;;;7.38;;
46651;SDS011;32377;52.182;5.398;2022-11-27T01:13:22;24.67;;;7.40;;
46651;SDS011;32377;52.182;5.398;2022-11-27T01:18:46;26.10;;;8.07;;
46651;SDS011;32377;52.182;5.398;2022-11-27T01:21:14;20.40;;;6.85;;
46651;SDS011;32377;52.182;5.398;2022-11-27T01:23:41;27.98;;;8.65;;
46651;SDS011;32377;52.182;5.398;2022-11-27T01:26:07;25.85;;;7.55;;
46651;SDS011;32377;52.182;5.398;2022-11-27T01:28:34;26.45;;;7.65;;
46651;SDS011;32377;52.182;5.398;2022-11-27T01:31:07;19.70;;;7.70;;
46651;SDS011;32377;52.182;5.398;2022-11-27T01:33:38;26.60;;;8.13;;
46651;SDS011;32377;52.182;5.398;2022-11-27T01:36:04;18.00;;;7.03;;
46651;SDS011;32377;52.182;5.398;2022-11-27T01:38:31;22.05;;;7.38;;
46651;SDS011;32377;52.182;5.398;2022-11-27T01:41:02;21.15;;;7.00;;
46651;SDS011;32377;52.182;5.398;2022-11-27T01:51:43;23.67;;;7.43;;
46651;SDS011;32377;52.182;5.398;2022-11-27T01:54:13;20.45;;;7.57;;
46651;SDS011;32377;52.182;5.398;2022-11-27T01:56:40;28.13;;;7.03;;
46651;SDS011;32377;52.182;5.398;2022-11-27T01:59:08;24.33;;;7.82;;
46651;SDS011;32377;52.182;5.398;2022-11-27T02:01:33;41.92;;;10.32;;
46651;SDS011;32377;52.182;5.398;2022-11-27T02:03:59;21.75;;;6.78;;
46651;SDS011;32377;52.182;5.398;2022-11-27T02:06:26;30.17;;;7.20;;
46651;SDS011;32377;52.182;5.398;2022-11-27T02:08:52;21.70;;;7.93;;
46651;SDS011;32377;52.182;5.398;2022-11-27T02:14:25;22.80;;;7.10;;
46651;SDS011;32377;52.182;5.398;2022-11-27T02:28:16;20.10;;;7.00;;
46651;SDS011;32377;52.182;5.398;2022-11-27T02:31:00;22.23;;;7.68;;
46651;SDS011;32377;52.182;5.398;2022-11-27T02:33:45;26.38;;;7.68;;
46651;SDS011;32377;52.182;5.398;2022-11-27T02:36:19;22.55;;;6.93;;
46651;SDS011;32377;52.182;5.398;2022-11-27T02:38:51;18.33;;;6.80;;
46651;SDS011;32377;52.182;5.398;2022-11-27T02:43:51;25.90;;;7.28;;
46651;SDS011;32377;52.182;5.398;2022-11-27T02:46:18;21.33;;;7.03;;
46651;SDS011;32377;52.182;5.398;2022-11-27T02:48:46;19.40;;;7.10;;
46651;SDS011;32377;52.182;5.398;2022-11-27T02:51:18;28.17;;;7.45;;
46651;SDS011;32377;52.182;5.398;2022-11-27T02:54:08;18.92;;;6.60;;
46651;SDS011;32377;52.182;5.398;2022-11-27T02:56:36;21.15;;;7.00;;
46651;SDS011;32377;52.182;5.398;2022-11-27T02:59:05;23.08;;;6.78;;
46651;SDS011;32377;52.182;5.398;2022-11-27T03:01:39;16.90;;;6.72;;
46651;SDS011;32377;52.182;5.398;2022-11-27T03:04:09;24.60;;;6.78;;
46651;SDS011;32377;52.182;5.398;2022-11-27T03:06:43;16.65;;;6.30;;
46651;SDS011;32377;52.182;5.398;2022-11-27T03:09:21;21.17;;;7.38;;
46651;SDS011;32377;52.182;5.398;2022-11-27T03:11:56;23.92;;;6.63;;
46651;SDS011;32377;52.182;5.398;2022-11-27T03:14:22;18.17;;;6.57;;
46651;SDS011;32377;52.182;5.398;2022-11-27T03:19:51;17.35;;;6.85;;
46651;SDS011;32377;52.182;5.398;2022-11-27T03:24:46;21.17;;;6.47;;
46651;SDS011;32377;52.182;5.398;2022-11-27T03:27:14;19.77;;;6.78;;
46651;SDS011;32377;52.182;5.398;2022-11-27T03:29:53;17.58;;;7.07;;
46651;SDS011;32377;52.182;5.398;2022-11-27T03:32:24;13.82;;;6.63;;
46651;SDS011;32377;52.182;5.398;2022-11-27T03:34:52;19.42;;;6.82;;
46651;SDS011;32377;52.182;5.398;2022-11-27T03:37:18;21.23;;;7.38;;
46651;SDS011;32377;52.182;5.398;2022-11-27T03:39:45;21.15;;;6.97;;
46651;SDS011;32377;52.182;5.398;2022-11-27T04:00:23;22.60;;;8.48;;
46651;SDS011;32377;52.182;5.398;2022-11-27T04:02:50;16.23;;;7.10;;
46651;SDS011;32377;52.182;5.398;2022-11-27T04:05:17;17.65;;;6.95;;
46651;SDS011;32377;52.182;5.398;2022-11-27T04:07:43;20.67;;;7.50;;
46651;SDS011;32377;52.182;5.398;2022-11-27T04:10:09;19.25;;;7.13;;
46651;SDS011;32377;52.182;5.398;2022-11-27T04:12:35;18.77;;;7.38;;
46651;SDS011;32377;52.182;5.398;2022-11-27T04:15:01;23.40;;;7.05;;
46651;SDS011;32377;52.182;5.398;2022-11-27T04:17:27;16.90;;;6.25;;
46651;SDS011;32377;52.182;5.398;2022-11-27T04:19:53;18.83;;;6.88;;
46651;SDS011;32377;52.182;5.398;2022-11-27T04:22:19;24.17;;;7.28;;
46651;SDS011;32377;52.182;5.398;2022-11-27T04:24:44;19.33;;;7.50;;
46651;SDS011;32377;52.182;5.398;2022-11-27T04:27:10;17.58;;;6.68;;
46651;SDS011;32377;52.182;5.398;2022-11-27T04:29:36;25.60;;;7.80;;
46651;SDS011;32377;52.182;5.398;2022-11-27T04:32:02;15.77;;;6.30;;
46651;SDS011;32377;52.182;5.398;2022-11-27T04:34:28;16.13;;;5.78;;
46651;SDS011;32377;52.182;5.398;2022-11-27T04:36:53;19.02;;;7.03;;
46651;SDS011;32377;52.182;5.398;2022-11-27T04:39:19;14.88;;;6.25;;
46651;SDS011;32377;52.182;5.398;2022-11-27T04:41:44;23.52;;;6.53;;
46651;SDS011;32377;52.182;5.398;2022-11-27T04:44:10;17.48;;;5.97;;
46651;SDS011;32377;52.182;5.398;2022-11-27T04:46:37;16.42;;;5.97;;
46651;SDS011;32377;52.182;5.398;2022-11-27T04:49:02;16.67;;;5.93;;
46651;SDS011;32377;52.182;5.398;2022-11-27T04:51:28;14.77;;;5.88;;
46651;SDS011;32377;52.182;5.398;2022-11-27T04:53:54;18.33;;;6.22;;
46651;SDS011;32377;52.182;5.398;2022-11-27T04:56:20;20.20;;;6.00;;
46651;SDS011;32377;52.182;5.398;2022-11-27T04:58:45;20.45;;;5.68;;
46651;SDS011;32377;52.182;5.398;2022-11-27T05:01:11;13.85;;;5.53;;
46651;SDS011;32377;52.182;5.398;2022-11-27T05:03:36;17.80;;;5.75;;
46651;SDS011;32377;52.182;5.398;2022-11-27T05:06:02;15.73;;;6.28;;
46651;SDS011;32377;52.182;5.398;2022-11-27T05:08:28;13.15;;;5.88;;
46651;SDS011;32377;52.182;5.398;2022-11-27T05:13:25;16.45;;;5.80;;
46651;SDS011;32377;52.182;5.398;2022-11-27T05:15:50;19.73;;;5.63;;
46651;SDS011;32377;52.182;5.398;2022-11-27T05:18:16;16.40;;;5.60;;
46651;SDS011;32377;52.182;5.398;2022-11-27T05:20:41;14.57;;;5.32;;
46651;SDS011;32377;52.182;5.398;2022-11-27T05:23:07;18.65;;;6.03;;
46651;SDS011;32377;52.182;5.398;2022-11-27T05:25:32;17.48;;;5.15;;
46651;SDS011;32377;52.182;5.398;2022-11-27T05:27:58;16.02;;;5.22;;
46651;SDS011;32377;52.182;5.398;2022-11-27T05:30:23;16.38;;;5.97;;
46651;SDS011;32377;52.182;5.398;2022-11-27T05:32:49;17.83;;;5.70;;
46651;SDS011;32377;52.182;5.398;2022-11-27T05:35:14;12.40;;;5.38;;
46651;SDS011;32377;52.182;5.398;2022-11-27T05:37:40;28.05;;;5.68;;
46651;SDS011;32377;52.182;5.398;2022-11-27T05:40:06;13.32;;;5.45;;
46651;SDS011;32377;52.182;5.398;2022-11-27T05:42:32;14.40;;;5.00;;
46651;SDS011;32377;52.182;5.398;2022-11-27T05:44:57;14.63;;;5.60;;
46651;SDS011;32377;52.182;5.398;2022-11-27T05:47:23;17.30;;;5.28;;
46651;SDS011;32377;52.182;5.398;2022-11-27T05:49:48;13.15;;;5.35;;
46651;SDS011;32377;52.182;5.398;2022-11-27T05:52:14;8.95;;;4.30;;
46651;SDS011;32377;52.182;5.398;2022-11-27T05:54:39;12.05;;;5.00;;
46651;SDS011;32377;52.182;5.398;2022-11-27T05:57:05;8.75;;;4.15;;
46651;SDS011;32377;52.182;5.398;2022-11-27T05:59:30;17.05;;;4.93;;
46651;SDS011;32377;52.182;5.398;2022-11-27T06:01:56;11.45;;;5.22;;
46651;SDS011;32377;52.182;5.398;2022-11-27T06:04:21;14.85;;;4.82;;
46651;SDS011;32377;52.182;5.398;2022-11-27T06:06:47;14.55;;;5.05;;
46651;SDS011;32377;52.182;5.398;2022-11-27T06:09:13;10.23;;;4.22;;
46651;SDS011;32377;52.182;5.398;2022-11-27T06:11:38;13.13;;;4.43;;
46651;SDS011;32377;52.182;5.398;2022-11-27T06:14:06;15.25;;;4.90;;
46651;SDS011;32377;52.182;5.398;2022-11-27T06:16:33;9.85;;;4.63;;
46651;SDS011;32377;52.182;5.398;2022-11-27T06:18:58;13.35;;;4.57;;
46651;SDS011;32377;52.182;5.398;2022-11-27T06:21:24;11.27;;;4.75;;
46651;SDS011;32377;52.182;5.398;2022-11-27T06:23:52;13.82;;;4.80;;
46651;SDS011;32377;52.182;5.398;2022-11-27T06:26:21;14.98;;;5.05;;
46651;SDS011;32377;52.182;5.398;2022-11-27T06:28:48;10.43;;;4.70;;
46651;SDS011;32377;52.182;5.398;2022-11-27T06:31:15;13.40;;;5.50;;
46651;SDS011;32377;52.182;5.398;2022-11-27T06:33:43;13.82;;;4.75;;
46651;SDS011;32377;52.182;5.398;2022-11-27T06:36:09;16.55;;;4.70;;
46651;SDS011;32377;52.182;5.398;2022-11-27T06:38:35;19.25;;;5.70;;
46651;SDS011;32377;52.182;5.398;2022-11-27T06:41:06;13.63;;;4.93;;
46651;SDS011;32377;52.182;5.398;2022-11-27T06:43:36;12.45;;;5.35;;
46651;SDS011;32377;52.182;5.398;2022-11-27T06:46:03;11.25;;;5.20;;
46651;SDS011;32377;52.182;5.398;2022-11-27T06:48:30;13.27;;;4.70;;
46651;SDS011;32377;52.182;5.398;2022-11-27T06:51:00;13.15;;;4.70;;
46651;SDS011;32377;52.182;5.398;2022-11-27T06:53:30;13.98;;;5.32;;
46651;SDS011;32377;52.182;5.398;2022-11-27T06:55:57;10.55;;;5.53;;
46651;SDS011;32377;52.182;5.398;2022-11-27T06:58:22;13.45;;;5.28;;
46651;SDS011;32377;52.182;5.398;2022-11-27T07:00:48;16.13;;;5.05;;
46651;SDS011;32377;52.182;5.398;2022-11-27T07:03:14;13.18;;;5.30;;
46651;SDS011;32377;52.182;5.398;2022-11-27T07:05:39;13.57;;;5.05;;
46651;SDS011;32377;52.182;5.398;2022-11-27T07:08:05;12.02;;;4.60;;
46651;SDS011;32377;52.182;5.398;2022-11-27T07:10:34;15.93;;;5.25;;
46651;SDS011;32377;52.182;5.398;2022-11-27T07:13:00;12.43;;;5.20;;
46651;SDS011;32377;52.182;5.398;2022-11-27T07:15:26;11.48;;;5.43;;
46651;SDS011;32377;52.182;5.398;2022-11-27T07:17:51;10.95;;;4.30;;
46651;SDS011;32377;52.182;5.398;2022-11-27T07:20:17;11.18;;;4.85;;
46651;SDS011;32377;52.182;5.398;2022-11-27T07:22:42;10.50;;;4.70;;
46651;SDS011;32377;52.182;5.398;2022-11-27T07:25:08;12.57;;;5.18;;
46651;SDS011;32377;52.182;5.398;2022-11-27T07:27:34;17.83;;;5.18;;
46651;SDS011;32377;52.182;5.398;2022-11-27T07:30:00;15.57;;;4.82;;
46651;SDS011;32377;52.182;5.398;2022-11-27T07:32:25;10.88;;;5.25;;
46651;SDS011;32377;52.182;5.398;2022-11-27T07:34:51;18.48;;;5.32;;
46651;SDS011;32377;52.182;5.398;2022-11-27T07:37:16;13.82;;;4.72;;
46651;SDS011;32377;52.182;5.398;2022-11-27T07:39:42;16.77;;;5.35;;
46651;SDS011;32377;52.182;5.398;2022-11-27T07:42:07;14.98;;;4.55;;
46651;SDS011;32377;52.182;5.398;2022-11-27T07:44:33;18.52;;;5.82;;
46651;SDS011;32377;52.182;5.398;2022-11-27T07:46:58;16.73;;;5.10;;
46651;SDS011;32377;52.182;5.398;2022-11-27T07:49:24;16.23;;;5.05;;
46651;SDS011;32377;52.182;5.398;2022-11-27T07:51:50;12.25;;;5.07;;
46651;SDS011;32377;52.182;5.398;2022-11-27T07:54:15;13.23;;;4.88;;
46651;SDS011;32377;52.182;5.398;2022-11-27T07:56:41;15.35;;;5.05;;
46651;SDS011;32377;52.182;5.398;2022-11-27T07:59:06;13.80;;;4.80;;
46651;SDS011;32377;52.182;5.398;2022-11-27T08:01:32;14.90;;;4.90;;
46651;SDS011;32377;52.182;5.398;2022-11-27T08:03:58;15.50;;;5.20;;
46651;SDS011;32377;52.182;5.398;2022-11-27T08:06:24;12.45;;;5.60;;
46651;SDS011;32377;52.182;5.398;2022-11-27T08:08:50;13.20;;;4.75;;
46651;SDS011;32377;52.182;5.398;2022-11-27T08:11:18;10.45;;;5.10;;
46651;SDS011;32377;52.182;5.398;2022-11-27T08:13:48;15.45;;;5.55;;
46651;SDS011;32377;52.182;5.398;2022-11-27T08:16:14;11.68;;;5.35;;
46651;SDS011;32377;52.182;5.398;2022-11-27T08:18:40;14.02;;;5.72;;
46651;SDS011;32377;52.182;5.398;2022-11-27T08:21:06;20.95;;;6.07;;
46651;SDS011;32377;52.182;5.398;2022-11-27T08:23:32;20.45;;;5.97;;
46651;SDS011;32377;52.182;5.398;2022-11-27T08:25:58;13.77;;;4.95;;
46651;SDS011;32377;52.182;5.398;2022-11-27T08:28:23;15.00;;;5.60;;
46651;SDS011;32377;52.182;5.398;2022-11-27T08:30:58;18.85;;;5.72;;
46651;SDS011;32377;52.182;5.398;2022-11-27T08:33:25;12.27;;;5.00;;
46651;SDS011;32377;52.182;5.398;2022-11-27T08:35:51;20.13;;;6.93;;
46651;SDS011;32377;52.182;5.398;2022-11-27T08:38:18;12.73;;;5.82;;
46651;SDS011;32377;52.182;5.398;2022-11-27T08:40:44;19.98;;;6.43;;
46651;SDS011;32377;52.182;5.398;2022-11-27T08:43:17;18.50;;;6.07;;
46651;SDS011;32377;52.182;5.398;2022-11-27T08:45:42;20.15;;;6.07;;
46651;SDS011;32377;52.182;5.398;2022-11-27T08:48:08;11.05;;;5.70;;
46651;SDS011;32377;52.182;5.398;2022-11-27T08:50:33;13.52;;;6.15;;
46651;SDS011;32377;52.182;5.398;2022-11-27T08:53:01;14.85;;;5.82;;
46651;SDS011;32377;52.182;5.398;2022-11-27T08:55:27;18.52;;;6.05;;
46651;SDS011;32377;52.182;5.398;2022-11-27T08:57:53;15.63;;;6.43;;
46651;SDS011;32377;52.182;5.398;2022-11-27T09:00:18;14.65;;;5.72;;
46651;SDS011;32377;52.182;5.398;2022-11-27T09:02:44;15.65;;;6.60;;
46651;SDS011;32377;52.182;5.398;2022-11-27T09:05:10;16.85;;;6.75;;
46651;SDS011;32377;52.182;5.398;2022-11-27T09:07:36;15.05;;;6.65;;
46651;SDS011;32377;52.182;5.398;2022-11-27T09:10:01;17.58;;;6.47;;
46651;SDS011;32377;52.182;5.398;2022-11-27T09:12:27;21.25;;;6.63;;
46651;SDS011;32377;52.182;5.398;2022-11-27T09:14:53;18.33;;;6.88;;
46651;SDS011;32377;52.182;5.398;2022-11-27T09:17:19;20.15;;;7.03;;
46651;SDS011;32377;52.182;5.398;2022-11-27T09:19:44;16.25;;;6.47;;
46651;SDS011;32377;52.182;5.398;2022-11-27T09:22:10;14.77;;;6.45;;
46651;SDS011;32377;52.182;5.398;2022-11-27T09:24:36;18.35;;;6.10;;
46651;SDS011;32377;52.182;5.398;2022-11-27T09:27:01;16.52;;;6.63;;
46651;SDS011;32377;52.182;5.398;2022-11-27T09:29:27;20.58;;;7.13;;
46651;SDS011;32377;52.182;5.398;2022-11-27T09:31:53;22.38;;;12.23;;
46651;SDS011;32377;52.182;5.398;2022-11-27T09:34:18;19.17;;;6.97;;
46651;SDS011;32377;52.182;5.398;2022-11-27T09:36:44;22.13;;;7.82;;
46651;SDS011;32377;52.182;5.398;2022-11-27T09:39:09;17.65;;;7.78;;
46651;SDS011;32377;52.182;5.398;2022-11-27T09:46:40;18.80;;;7.22;;
46651;SDS011;32377;52.182;5.398;2022-11-27T09:49:07;13.05;;;6.93;;
46651;SDS011;32377;52.182;5.398;2022-11-27T09:51:39;21.33;;;7.63;;
46651;SDS011;32377;52.182;5.398;2022-11-27T09:56:54;16.98;;;7.28;;
46651;SDS011;32377;52.182;5.398;2022-11-27T09:59:22;14.25;;;7.57;;
46651;SDS011;32377;52.182;5.398;2022-11-27T10:01:53;20.33;;;7.43;;
46651;SDS011;32377;52.182;5.398;2022-11-27T10:04:19;17.50;;;7.55;;
46651;SDS011;32377;52.182;5.398;2022-11-27T10:12:21;18.70;;;7.82;;
46651;SDS011;32377;52.182;5.398;2022-11-27T10:15:06;12.27;;;7.38;;
46651;SDS011;32377;52.182;5.398;2022-11-27T10:17:57;14.80;;;7.75;;
46651;SDS011;32377;52.182;5.398;2022-11-27T10:20:33;18.70;;;7.82;;
46651;SDS011;32377;52.182;5.398;2022-11-27T10:23:17;15.73;;;7.60;;
46651;SDS011;32377;52.182;5.398;2022-11-27T10:26:08;18.13;;;7.97;;
46651;SDS011;32377;52.182;5.398;2022-11-27T10:31:18;15.65;;;7.82;;
46651;SDS011;32377;52.182;5.398;2022-11-27T10:33:56;13.70;;;7.72;;
46651;SDS011;32377;52.182;5.398;2022-11-27T10:36:35;19.52;;;8.68;;
46651;SDS011;32377;52.182;5.398;2022-11-27T10:39:05;15.68;;;8.02;;
46651;SDS011;32377;52.182;5.398;2022-11-27T10:42:02;23.85;;;9.07;;
46651;SDS011;32377;52.182;5.398;2022-11-27T10:44:58;17.95;;;8.73;;
46651;SDS011;32377;52.182;5.398;2022-11-27T10:47:29;23.50;;;9.75;;
46651;SDS011;32377;52.182;5.398;2022-11-27T10:49:55;18.40;;;8.27;;
46651;SDS011;32377;52.182;5.398;2022-11-27T10:52:21;16.60;;;8.63;;
46651;SDS011;32377;52.182;5.398;2022-11-27T10:54:57;19.88;;;10.15;;
46651;SDS011;32377;52.182;5.398;2022-11-27T10:57:49;16.92;;;8.13;;
46651;SDS011;32377;52.182;5.398;2022-11-27T11:00:27;23.40;;;11.02;;
46651;SDS011;32377;52.182;5.398;2022-11-27T11:02:59;27.40;;;10.93;;
46651;SDS011;32377;52.182;5.398;2022-11-27T11:05:26;18.10;;;8.82;;
46651;SDS011;32377;52.182;5.398;2022-11-27T11:10:34;21.23;;;9.52;;
46651;SDS011;32377;52.182;5.398;2022-11-27T11:13:02;18.42;;;9.15;;
46651;SDS011;32377;52.182;5.398;2022-11-27T11:15:47;22.52;;;9.15;;
46651;SDS011;32377;52.182;5.398;2022-11-27T11:18:16;18.38;;;8.88;;
46651;SDS011;32377;52.182;5.398;2022-11-27T11:20:57;21.73;;;9.57;;
46651;SDS011;32377;52.182;5.398;2022-11-27T11:23:26;23.60;;;9.75;;
46651;SDS011;32377;52.182;5.398;2022-11-27T11:25:55;17.33;;;9.15;;
46651;SDS011;32377;52.182;5.398;2022-11-27T11:28:26;17.95;;;9.35;;
46651;SDS011;32377;52.182;5.398;2022-11-27T11:30:55;19.05;;;9.60;;
46651;SDS011;32377;52.182;5.398;2022-11-27T11:33:48;21.73;;;10.98;;
46651;SDS011;32377;52.182;5.398;2022-11-27T11:36:18;19.88;;;9.60;;
46651;SDS011;32377;52.182;5.398;2022-11-27T11:38:44;14.88;;;9.05;;
46651;SDS011;32377;52.182;5.398;2022-11-27T11:41:11;21.48;;;10.25;;
46651;SDS011;32377;52.182;5.398;2022-11-27T11:43:38;15.95;;;8.02;;
46651;SDS011;32377;52.182;5.398;2022-11-27T11:46:05;16.52;;;8.68;;
46651;SDS011;32377;52.182;5.398;2022-11-27T11:48:39;18.48;;;8.77;;
46651;SDS011;32377;52.182;5.398;2022-11-27T11:51:23;17.83;;;8.27;;
46651;SDS011;32377;52.182;5.398;2022-11-27T11:54:06;18.00;;;8.93;;
46651;SDS011;32377;52.182;5.398;2022-11-27T11:56:38;20.50;;;8.80;;
46651;SDS011;32377;52.182;5.398;2022-11-27T12:02:07;16.55;;;8.10;;
46651;SDS011;32377;52.182;5.398;2022-11-27T12:10:56;15.98;;;8.77;;
46651;SDS011;32377;52.182;5.398;2022-11-27T12:13:51;15.50;;;7.85;;
46651;SDS011;32377;52.182;5.398;2022-11-27T12:16:38;20.27;;;8.88;;
46651;SDS011;32377;52.182;5.398;2022-11-27T12:30:24;14.18;;;8.20;;
46651;SDS011;32377;52.182;5.398;2022-11-27T12:36:18;27.25;;;11.55;;
46651;SDS011;32377;52.182;5.398;2022-11-27T12:41:43;15.02;;;8.10;;
46651;SDS011;32377;52.182;5.398;2022-11-27T12:49:33;15.88;;;8.38;;
46651;SDS011;32377;52.182;5.398;2022-11-27T12:52:18;14.80;;;8.13;;
46651;SDS011;32377;52.182;5.398;2022-11-27T12:57:42;16.13;;;8.90;;
46651;SDS011;32377;52.182;5.398;2022-11-27T13:00:16;10.98;;;7.38;;
46651;SDS011;32377;52.182;5.398;2022-11-27T13:05:29;12.65;;;7.53;;
46651;SDS011;32377;52.182;5.398;2022-11-27T13:08:10;20.90;;;8.82;;
46651;SDS011;32377;52.182;5.398;2022-11-27T13:11:11;14.52;;;7.57;;
46651;SDS011;32377;52.182;5.398;2022-11-27T13:13:48;16.92;;;7.63;;
46651;SDS011;32377;52.182;5.398;2022-11-27T13:16:21;14.75;;;7.72;;
46651;SDS011;32377;52.182;5.398;2022-11-27T13:21:40;19.65;;;8.70;;
46651;SDS011;32377;52.182;5.398;2022-11-27T13:24:12;17.48;;;8.63;;
46651;SDS011;32377;52.182;5.398;2022-11-27T13:26:41;13.60;;;8.80;;
46651;SDS011;32377;52.182;5.398;2022-11-27T13:29:20;16.52;;;7.72;;
46651;SDS011;32377;52.182;5.398;2022-11-27T13:31:57;17.00;;;8.27;;
46651;SDS011;32377;52.182;5.398;2022-11-27T13:34:27;19.65;;;10.27;;
46651;SDS011;32377;52.182;5.398;2022-11-27T13:36:56;19.88;;;10.20;;
46651;SDS011;32377;52.182;5.398;2022-11-27T13:39:28;19.08;;;8.90;;
46651;SDS011;32377;52.182;5.398;2022-11-27T13:42:19;15.40;;;8.63;;
46651;SDS011;32377;52.182;5.398;2022-11-27T13:44:54;14.75;;;9.10;;
46651;SDS011;32377;52.182;5.398;2022-11-27T13:47:22;19.67;;;10.95;;
46651;SDS011;32377;52.182;5.398;2022-11-27T13:50:00;19.55;;;9.70;;
46651;SDS011;32377;52.182;5.398;2022-11-27T13:52:29;18.98;;;10.88;;
46651;SDS011;32377;52.182;5.398;2022-11-27T13:54:55;16.73;;;9.93;;
46651;SDS011;32377;52.182;5.398;2022-11-27T13:57:30;16.08;;;9.88;;
46651;SDS011;32377;52.182;5.398;2022-11-27T14:00:08;18.98;;;8.68;;
46651;SDS011;32377;52.182;5.398;2022-11-27T14:02:44;19.13;;;9.45;;
46651;SDS011;32377;52.182;5.398;2022-11-27T14:05:14;13.27;;;7.72;;
46651;SDS011;32377;52.182;5.398;2022-11-27T14:07:43;19.05;;;8.52;;
46651;SDS011;32377;52.182;5.398;2022-11-27T14:10:15;16.05;;;7.88;;
46651;SDS011;32377;52.182;5.398;2022-11-27T14:12:49;17.08;;;8.43;;
46651;SDS011;32377;52.182;5.398;2022-11-27T14:15:21;14.95;;;8.50;;
46651;SDS011;32377;52.182;5.398;2022-11-27T14:17:49;19.75;;;8.88;;
46651;SDS011;32377;52.182;5.398;2022-11-27T14:20:19;16.67;;;8.07;;
46651;SDS011;32377;52.182;5.398;2022-11-27T14:25:19;15.77;;;8.20;;
46651;SDS011;32377;52.182;5.398;2022-11-27T14:27:57;14.77;;;8.70;;
46651;SDS011;32377;52.182;5.398;2022-11-27T14:33:16;17.00;;;8.68;;
46651;SDS011;32377;52.182;5.398;2022-11-27T14:35:46;17.40;;;10.32;;
46651;SDS011;32377;52.182;5.398;2022-11-27T14:38:13;21.40;;;9.60;;
46651;SDS011;32377;52.182;5.398;2022-11-27T14:40:41;17.88;;;8.75;;
46651;SDS011;32377;52.182;5.398;2022-11-27T14:43:24;16.15;;;9.23;;
46651;SDS011;32377;52.182;5.398;2022-11-27T14:45:52;17.33;;;10.18;;
46651;SDS011;32377;52.182;5.398;2022-11-27T14:48:21;16.02;;;9.95;;
46651;SDS011;32377;52.182;5.398;2022-11-27T14:50:51;18.42;;;9.55;;
46651;SDS011;32377;52.182;5.398;2022-11-27T14:53:19;21.35;;;10.15;;
46651;SDS011;32377;52.182;5.398;2022-11-27T14:55:48;17.38;;;8.85;;
46651;SDS011;32377;52.182;5.398;2022-11-27T14:58:19;19.63;;;9.43;;
46651;SDS011;32377;52.182;5.398;2022-11-27T15:00:59;16.63;;;9.93;;
46651;SDS011;32377;52.182;5.398;2022-11-27T15:03:28;17.33;;;9.70;;
46651;SDS011;32377;52.182;5.398;2022-11-27T15:05:58;20.30;;;9.43;;
46651;SDS011;32377;52.182;5.398;2022-11-27T15:08:27;21.08;;;10.05;;
46651;SDS011;32377;52.182;5.398;2022-11-27T15:10:56;20.17;;;10.38;;
46651;SDS011;32377;52.182;5.398;2022-11-27T15:13:27;18.77;;;9.88;;
46651;SDS011;32377;52.182;5.398;2022-11-27T15:18:32;16.05;;;9.20;;
46651;SDS011;32377;52.182;5.398;2022-11-27T15:21:01;15.07;;;9.20;;
46651;SDS011;32377;52.182;5.398;2022-11-27T15:23:32;21.60;;;9.80;;
46651;SDS011;32377;52.182;5.398;2022-11-27T15:26:04;16.83;;;9.27;;
46651;SDS011;32377;52.182;5.398;2022-11-27T15:28:36;15.80;;;9.10;;
46651;SDS011;32377;52.182;5.398;2022-11-27T15:33:56;37.38;;;18.75;;
46651;SDS011;32377;52.182;5.398;2022-11-27T15:36:23;17.80;;;10.05;;
46651;SDS011;32377;52.182;5.398;2022-11-27T15:38:50;17.13;;;9.02;;
46651;SDS011;32377;52.182;5.398;2022-11-27T15:41:19;15.75;;;8.60;;
46651;SDS011;32377;52.182;5.398;2022-11-27T15:43:47;18.85;;;9.68;;
46651;SDS011;32377;52.182;5.398;2022-11-27T15:46:13;15.77;;;8.65;;
46651;SDS011;32377;52.182;5.398;2022-11-27T15:48:47;21.30;;;9.60;;
46651;SDS011;32377;52.182;5.398;2022-11-27T15:51:13;21.85;;;9.13;;
46651;SDS011;32377;52.182;5.398;2022-11-27T15:53:39;14.70;;;8.40;;
46651;SDS011;32377;52.182;5.398;2022-11-27T15:56:04;16.40;;;10.43;;
46651;SDS011;32377;52.182;5.398;2022-11-27T15:58:30;14.65;;;8.77;;
46651;SDS011;32377;52.182;5.398;2022-11-27T16:00:56;16.77;;;9.20;;
46651;SDS011;32377;52.182;5.398;2022-11-27T16:03:22;16.60;;;9.02;;
46651;SDS011;32377;52.182;5.398;2022-11-27T16:05:47;22.10;;;10.45;;
46651;SDS011;32377;52.182;5.398;2022-11-27T16:08:13;18.48;;;9.23;;
46651;SDS011;32377;52.182;5.398;2022-11-27T16:10:39;17.15;;;9.48;;
46651;SDS011;32377;52.182;5.398;2022-11-27T16:13:05;19.13;;;10.38;;
46651;SDS011;32377;52.182;5.398;2022-11-27T16:15:31;13.93;;;8.10;;
46651;SDS011;32377;52.182;5.398;2022-11-27T16:17:57;13.80;;;9.60;;
46651;SDS011;32377;52.182;5.398;2022-11-27T16:20:22;20.95;;;9.63;;
46651;SDS011;32377;52.182;5.398;2022-11-27T16:22:48;15.15;;;8.88;;
46651;SDS011;32377;52.182;5.398;2022-11-27T16:25:14;15.95;;;8.57;;
46651;SDS011;32377;52.182;5.398;2022-11-27T16:27:40;14.40;;;8.57;;
46651;SDS011;32377;52.182;5.398;2022-11-27T16:30:06;15.88;;;8.80;;
46651;SDS011;32377;52.182;5.398;2022-11-27T16:32:35;19.75;;;8.52;;
46651;SDS011;32377;52.182;5.398;2022-11-27T16:35:02;17.25;;;8.43;;
46651;SDS011;32377;52.182;5.398;2022-11-27T16:37:28;14.38;;;8.15;;
46651;SDS011;32377;52.182;5.398;2022-11-27T16:39:54;12.23;;;8.23;;
46651;SDS011;32377;52.182;5.398;2022-11-27T16:42:19;14.50;;;8.57;;
46651;SDS011;32377;52.182;5.398;2022-11-27T16:44:45;14.25;;;8.40;;
46651;SDS011;32377;52.182;5.398;2022-11-27T16:47:11;15.73;;;9.75;;
46651;SDS011;32377;52.182;5.398;2022-11-27T16:49:37;17.60;;;8.65;;